sensor_id;sensor_type;location;lat;lon;timestamp;pressure;altitude;pressure_sealevel;temperature;humidity
32759;BME280;19125;52.360;9.974;2023-05-12T00:01:10;-15010.44;;;-145.17;78.54
32759;BME280;19125;52.360;9.974;2023-05-12T00:03:37;-15010.44;;;-145.17;78.57
32759;BME280;19125;52.360;9.974;2023-05-12T00:06:05;-15010.44;;;-145.17;78.23
32759;BME280;19125;52.360;9.974;2023-05-12T00:08:31;-15010.44;;;-145.17;78.41
32759;BME280;19125;52.360;9.974;2023-05-12T00:10:57;-15010.44;;;-145.17;78.30
32759;BME280;19125;52.360;9.974;2023-05-12T00:13:23;-15010.44;;;-145.17;78.61
32759;BME280;19125;52.360;9.974;2023-05-12T00:15:49;-15010.44;;;-145.17;78.52
32759;BME280;19125;52.360;9.974;2023-05-12T00:18:15;-15010.44;;;-145.17;78.60
32759;BME280;19125;52.360;9.974;2023-05-12T00:20:40;-15010.44;;;-145.17;78.62
32759;BME280;19125;52.360;9.974;2023-05-12T00:23:06;-15010.44;;;-145.17;78.59
32759;BME280;19125;52.360;9.974;2023-05-12T00:25:31;-15010.44;;;-145.17;78.39
32759;BME280;19125;52.360;9.974;2023-05-12T00:27:56;-15010.44;;;-145.17;78.31
32759;BME280;19125;52.360;9.974;2023-05-12T00:30:22;-15010.44;;;-145.17;78.59
32759;BME280;19125;52.360;9.974;2023-05-12T00:32:47;-15010.44;;;-145.17;78.47
32759;BME280;19125;52.360;9.974;2023-05-12T00:35:13;-15010.44;;;-145.17;78.78
32759;BME280;19125;52.360;9.974;2023-05-12T00:37:40;-15010.44;;;-145.17;78.67
32759;BME280;19125;52.360;9.974;2023-05-12T00:40:06;-15010.44;;;-145.17;78.42
32759;BME280;19125;52.360;9.974;2023-05-12T00:42:33;-15010.44;;;-145.17;78.40
32759;BME280;19125;52.360;9.974;2023-05-12T00:44:59;-15010.44;;;-145.17;78.81
32759;BME280;19125;52.360;9.974;2023-05-12T00:47:24;-15010.44;;;-145.17;78.54
32759;BME280;19125;52.360;9.974;2023-05-12T00:49:50;-15010.44;;;-145.17;78.83
32759;BME280;19125;52.360;9.974;2023-05-12T00:52:15;-15010.44;;;-145.17;78.68
32759;BME280;19125;52.360;9.974;2023-05-12T00:54:41;-15010.44;;;-145.17;78.60
32759;BME280;19125;52.360;9.974;2023-05-12T00:57:07;-15010.44;;;-145.17;78.72
32759;BME280;19125;52.360;9.974;2023-05-12T00:59:32;-15010.44;;;-145.17;78.67
32759;BME280;19125;52.360;9.974;2023-05-12T01:01:58;-15010.44;;;-145.17;78.65
32759;BME280;19125;52.360;9.974;2023-05-12T01:04:23;-15010.44;;;-145.17;78.92
32759;BME280;19125;52.360;9.974;2023-05-12T01:06:55;-15010.44;;;-145.17;78.83
32759;BME280;19125;52.360;9.974;2023-05-12T01:09:22;-15010.44;;;-145.17;79.01
32759;BME280;19125;52.360;9.974;2023-05-12T01:11:47;-15010.44;;;-145.17;78.96
32759;BME280;19125;52.360;9.974;2023-05-12T01:14:13;-15010.44;;;-145.17;78.95
32759;BME280;19125;52.360;9.974;2023-05-12T01:16:43;-15010.44;;;-145.17;78.72
32759;BME280;19125;52.360;9.974;2023-05-12T01:19:28;-15010.44;;;-145.17;78.63
32759;BME280;19125;52.360;9.974;2023-05-12T01:21:57;-15010.44;;;-145.17;78.60
32759;BME280;19125;52.360;9.974;2023-05-12T01:24:26;-15010.44;;;-145.17;78.91
32759;BME280;19125;52.360;9.974;2023-05-12T01:26:53;-15010.44;;;-145.17;78.83
32759;BME280;19125;52.360;9.974;2023-05-12T01:29:20;-15010.44;;;-145.17;78.99
32759;BME280;19125;52.360;9.974;2023-05-12T01:31:47;-15010.44;;;-145.17;79.08
32759;BME280;19125;52.360;9.974;2023-05-12T01:34:15;-15010.44;;;-145.17;78.90
32759;BME280;19125;52.360;9.974;2023-05-12T01:36:40;-15010.44;;;-145.17;78.94
32759;BME280;19125;52.360;9.974;2023-05-12T01:39:05;-15010.44;;;-145.17;78.76
32759;BME280;19125;52.360;9.974;2023-05-12T01:41:31;-15010.44;;;-145.17;78.96
32759;BME280;19125;52.360;9.974;2023-05-12T01:43:56;-15010.44;;;-145.17;79.10
32759;BME280;19125;52.360;9.974;2023-05-12T01:46:21;-15010.44;;;-145.17;78.87
32759;BME280;19125;52.360;9.974;2023-05-12T01:48:46;-15010.44;;;-145.17;78.93
32759;BME280;19125;52.360;9.974;2023-05-12T01:51:12;-15010.44;;;-145.17;78.95
32759;BME280;19125;52.360;9.974;2023-05-12T01:53:37;-15010.44;;;-145.17;79.16
32759;BME280;19125;52.360;9.974;2023-05-12T01:56:02;-15010.44;;;-145.17;78.97
32759;BME280;19125;52.360;9.974;2023-05-12T01:58:28;-15010.44;;;-145.17;79.01
32759;BME280;19125;52.360;9.974;2023-05-12T02:00:53;-15010.44;;;-145.17;79.00
32759;BME280;19125;52.360;9.974;2023-05-12T02:03:18;-15010.44;;;-145.17;78.99
32759;BME280;19125;52.360;9.974;2023-05-12T02:05:44;-15010.44;;;-145.17;79.22
32759;BME280;19125;52.360;9.974;2023-05-12T02:08:09;-15010.44;;;-145.17;79.33
32759;BME280;19125;52.360;9.974;2023-05-12T02:10:34;-15010.44;;;-145.17;79.36
32759;BME280;19125;52.360;9.974;2023-05-12T02:13:00;-15010.44;;;-145.17;79.56
32759;BME280;19125;52.360;9.974;2023-05-12T02:15:25;-15010.44;;;-145.17;79.46
32759;BME280;19125;52.360;9.974;2023-05-12T02:17:50;-15010.44;;;-145.17;79.15
32759;BME280;19125;52.360;9.974;2023-05-12T02:20:18;-15010.44;;;-145.17;79.60
32759;BME280;19125;52.360;9.974;2023-05-12T02:22:43;-15010.44;;;-145.17;79.10
32759;BME280;19125;52.360;9.974;2023-05-12T02:25:09;-15010.44;;;-145.17;79.39
32759;BME280;19125;52.360;9.974;2023-05-12T02:27:34;-15010.44;;;-145.17;79.50
32759;BME280;19125;52.360;9.974;2023-05-12T02:29:59;-15010.44;;;-145.17;79.40
32759;BME280;19125;52.360;9.974;2023-05-12T02:32:24;-15010.44;;;-145.17;79.24
32759;BME280;19125;52.360;9.974;2023-05-12T02:34:53;-15010.44;;;-145.17;79.52
32759;BME280;19125;52.360;9.974;2023-05-12T02:37:18;-15010.44;;;-145.17;79.48
32759;BME280;19125;52.360;9.974;2023-05-12T02:39:43;-15010.44;;;-145.17;79.36
32759;BME280;19125;52.360;9.974;2023-05-12T02:42:09;-15010.44;;;-145.17;79.47
32759;BME280;19125;52.360;9.974;2023-05-12T02:44:34;-15010.44;;;-145.17;79.84
32759;BME280;19125;52.360;9.974;2023-05-12T02:46:59;-15010.44;;;-145.17;79.51
32759;BME280;19125;52.360;9.974;2023-05-12T02:49:25;-15010.44;;;-145.17;79.56
32759;BME280;19125;52.360;9.974;2023-05-12T02:51:50;-15010.44;;;-145.17;79.68
32759;BME280;19125;52.360;9.974;2023-05-12T02:54:15;-15010.44;;;-145.17;79.67
32759;BME280;19125;52.360;9.974;2023-05-12T02:56:41;-15010.44;;;-145.17;79.82
32759;BME280;19125;52.360;9.974;2023-05-12T02:59:06;-15010.44;;;-145.17;79.69
32759;BME280;19125;52.360;9.974;2023-05-12T03:01:31;-15010.44;;;-145.17;79.96
32759;BME280;19125;52.360;9.974;2023-05-12T03:03:57;-15010.44;;;-145.17;79.77
32759;BME280;19125;52.360;9.974;2023-05-12T03:06:22;-15010.44;;;-145.17;79.55
32759;BME280;19125;52.360;9.974;2023-05-12T03:08:47;-15010.44;;;-145.17;79.72
32759;BME280;19125;52.360;9.974;2023-05-12T03:11:13;-15010.44;;;-145.17;79.83
32759;BME280;19125;52.360;9.974;2023-05-12T03:13:38;-15010.44;;;-145.17;79.72
32759;BME280;19125;52.360;9.974;2023-05-12T03:16:04;-15010.44;;;-145.17;79.90
32759;BME280;19125;52.360;9.974;2023-05-12T03:18:29;-15010.44;;;-145.17;79.79
32759;BME280;19125;52.360;9.974;2023-05-12T03:20:55;-15010.44;;;-145.17;79.62
32759;BME280;19125;52.360;9.974;2023-05-12T03:23:20;-15010.44;;;-145.17;79.70
32759;BME280;19125;52.360;9.974;2023-05-12T03:25:45;-15010.44;;;-145.17;80.00
32759;BME280;19125;52.360;9.974;2023-05-12T03:28:11;-15010.44;;;-145.17;79.80
32759;BME280;19125;52.360;9.974;2023-05-12T03:30:37;-15010.44;;;-145.17;79.73
32759;BME280;19125;52.360;9.974;2023-05-12T03:33:02;-15010.44;;;-145.17;79.96
32759;BME280;19125;52.360;9.974;2023-05-12T03:35:28;-15010.44;;;-145.17;79.55
32759;BME280;19125;52.360;9.974;2023-05-12T03:37:53;-15010.44;;;-145.17;79.88
32759;BME280;19125;52.360;9.974;2023-05-12T03:40:18;-15010.44;;;-145.17;79.59
32759;BME280;19125;52.360;9.974;2023-05-12T03:42:44;-15010.44;;;-145.17;79.57
32759;BME280;19125;52.360;9.974;2023-05-12T03:45:10;-15010.44;;;-145.17;79.77
32759;BME280;19125;52.360;9.974;2023-05-12T03:47:35;-15010.44;;;-145.17;79.78
32759;BME280;19125;52.360;9.974;2023-05-12T03:50:01;-15010.44;;;-145.17;80.11
32759;BME280;19125;52.360;9.974;2023-05-12T03:52:26;-15010.44;;;-145.17;79.92
32759;BME280;19125;52.360;9.974;2023-05-12T03:54:51;-15010.44;;;-145.17;79.66
32759;BME280;19125;52.360;9.974;2023-05-12T03:57:17;-15010.44;;;-145.17;79.72
32759;BME280;19125;52.360;9.974;2023-05-12T03:59:42;-15010.44;;;-145.17;79.71
32759;BME280;19125;52.360;9.974;2023-05-12T04:02:07;-15010.44;;;-145.17;79.95
32759;BME280;19125;52.360;9.974;2023-05-12T04:04:36;-15010.44;;;-145.17;79.79
32759;BME280;19125;52.360;9.974;2023-05-12T04:07:01;-15010.44;;;-145.17;80.05
32759;BME280;19125;52.360;9.974;2023-05-12T04:09:30;-15010.44;;;-145.17;79.82
32759;BME280;19125;52.360;9.974;2023-05-12T04:11:55;-15010.44;;;-145.17;80.11
32759;BME280;19125;52.360;9.974;2023-05-12T04:14:21;-15010.44;;;-145.17;79.69
32759;BME280;19125;52.360;9.974;2023-05-12T04:16:46;-15010.44;;;-145.17;79.94
32759;BME280;19125;52.360;9.974;2023-05-12T04:19:12;-15010.44;;;-145.17;79.80
32759;BME280;19125;52.360;9.974;2023-05-12T04:21:37;-15010.44;;;-145.17;80.07
32759;BME280;19125;52.360;9.974;2023-05-12T04:24:03;-15010.44;;;-145.17;79.87
32759;BME280;19125;52.360;9.974;2023-05-12T04:26:28;-15010.44;;;-145.17;79.78
32759;BME280;19125;52.360;9.974;2023-05-12T04:28:53;-15010.44;;;-145.17;79.65
32759;BME280;19125;52.360;9.974;2023-05-12T04:31:19;-15010.44;;;-145.17;79.39
32759;BME280;19125;52.360;9.974;2023-05-12T04:33:44;-15010.44;;;-145.17;79.35
32759;BME280;19125;52.360;9.974;2023-05-12T04:36:09;-15010.44;;;-145.17;79.38
32759;BME280;19125;52.360;9.974;2023-05-12T04:38:38;-15010.44;;;-145.17;79.49
32759;BME280;19125;52.360;9.974;2023-05-12T04:41:03;-15010.44;;;-145.17;79.52
32759;BME280;19125;52.360;9.974;2023-05-12T04:43:28;-15010.44;;;-145.17;79.20
32759;BME280;19125;52.360;9.974;2023-05-12T04:45:54;-15010.44;;;-145.17;79.35
32759;BME280;19125;52.360;9.974;2023-05-12T04:48:20;-15010.44;;;-145.17;79.08
32759;BME280;19125;52.360;9.974;2023-05-12T04:50:46;-15010.44;;;-145.17;79.07
32759;BME280;19125;52.360;9.974;2023-05-12T04:53:13;-15010.44;;;-145.17;79.10
32759;BME280;19125;52.360;9.974;2023-05-12T04:55:38;-15010.44;;;-145.17;78.84
32759;BME280;19125;52.360;9.974;2023-05-12T04:58:04;-15010.44;;;-145.17;79.11
32759;BME280;19125;52.360;9.974;2023-05-12T05:00:29;-15010.44;;;-145.17;78.88
32759;BME280;19125;52.360;9.974;2023-05-12T05:02:54;-15010.44;;;-145.17;78.89
32759;BME280;19125;52.360;9.974;2023-05-12T05:05:20;-15010.44;;;-145.17;78.86
32759;BME280;19125;52.360;9.974;2023-05-12T05:07:45;-15010.44;;;-145.17;78.27
32759;BME280;19125;52.360;9.974;2023-05-12T05:10:10;-15010.44;;;-145.17;78.28
32759;BME280;19125;52.360;9.974;2023-05-12T05:12:36;-15010.44;;;-145.17;77.92
32759;BME280;19125;52.360;9.974;2023-05-12T05:15:01;-15010.44;;;-145.17;78.10
32759;BME280;19125;52.360;9.974;2023-05-12T05:17:27;-15010.44;;;-145.17;77.84
32759;BME280;19125;52.360;9.974;2023-05-12T05:19:52;-15010.44;;;-145.17;77.62
32759;BME280;19125;52.360;9.974;2023-05-12T05:22:17;-15010.44;;;-145.17;77.10
32759;BME280;19125;52.360;9.974;2023-05-12T05:24:43;-15010.44;;;-145.17;77.21
32759;BME280;19125;52.360;9.974;2023-05-12T05:27:09;-15010.44;;;-145.17;76.83
32759;BME280;19125;52.360;9.974;2023-05-12T05:29:34;-15010.44;;;-145.17;76.51
32759;BME280;19125;52.360;9.974;2023-05-12T05:31:59;-15010.44;;;-145.17;76.40
32759;BME280;19125;52.360;9.974;2023-05-12T05:34:25;-15010.44;;;-145.17;75.86
32759;BME280;19125;52.360;9.974;2023-05-12T05:36:50;-15010.44;;;-145.17;75.37
32759;BME280;19125;52.360;9.974;2023-05-12T05:39:15;-15010.44;;;-145.17;75.20
32759;BME280;19125;52.360;9.974;2023-05-12T05:41:41;-15010.44;;;-145.17;74.66
32759;BME280;19125;52.360;9.974;2023-05-12T05:44:07;-14266.31;;;-145.17;74.06
32759;BME280;19125;52.360;9.974;2023-05-12T05:46:33;-13028.22;;;-145.17;73.93
32759;BME280;19125;52.360;9.974;2023-05-12T05:48:58;-10550.78;;;-145.17;73.43
32759;BME280;19125;52.360;9.974;2023-05-12T05:51:23;-6583.59;;;-145.17;72.60
32759;BME280;19125;52.360;9.974;2023-05-12T05:53:49;-873.56;;;-145.17;71.69
32759;BME280;19125;52.360;9.974;2023-05-12T05:56:14;5591.47;;;-145.17;70.90
32759;BME280;19125;52.360;9.974;2023-05-12T05:58:39;14560.94;;;-145.17;69.71
32759;BME280;19125;52.360;9.974;2023-05-12T06:01:05;27303.25;;;-145.17;69.12
32759;BME280;19125;52.360;9.974;2023-05-12T06:03:31;37326.38;;;-145.17;68.36
32759;BME280;19125;52.360;9.974;2023-05-12T06:05:56;48884.69;;;-145.17;67.43
32759;BME280;19125;52.360;9.974;2023-05-12T06:08:22;64475.47;;;-145.17;66.89
32759;BME280;19125;52.360;9.974;2023-05-12T06:10:47;78982.47;;;-145.17;65.47
32759;BME280;19125;52.360;9.974;2023-05-12T06:13:12;84778.59;;;-145.17;65.00
32759;BME280;19125;52.360;9.974;2023-05-12T06:15:38;86050.34;;;-145.17;64.91
32759;BME280;19125;52.360;9.974;2023-05-12T06:18:03;86314.25;;;-145.17;64.70
32759;BME280;19125;52.360;9.974;2023-05-12T06:20:28;86804.44;;;-145.17;64.36
32759;BME280;19125;52.360;9.974;2023-05-12T06:22:54;87026.75;;;-145.17;63.96
32759;BME280;19125;52.360;9.974;2023-05-12T06:25:20;87114.06;;;-145.17;63.35
32759;BME280;19125;52.360;9.974;2023-05-12T06:27:45;87108.13;;;-145.17;63.20
32759;BME280;19125;52.360;9.974;2023-05-12T06:30:11;87120.03;;;-145.17;62.76
32759;BME280;19125;52.360;9.974;2023-05-12T06:32:36;87098.19;;;-145.17;62.87
32759;BME280;19125;52.360;9.974;2023-05-12T06:35:02;87098.19;;;-145.17;62.45
32759;BME280;19125;52.360;9.974;2023-05-12T06:37:27;87050.56;;;-145.17;61.68
32759;BME280;19125;52.360;9.974;2023-05-12T06:39:53;87028.72;;;-145.17;61.19
32759;BME280;19125;52.360;9.974;2023-05-12T06:42:18;86953.31;;;-145.17;60.71
32759;BME280;19125;52.360;9.974;2023-05-12T06:44:44;86881.84;;;-145.17;59.92
32759;BME280;19125;52.360;9.974;2023-05-12T06:47:10;86778.66;;;-145.17;59.23
32759;BME280;19125;52.360;9.974;2023-05-12T06:49:35;86691.31;;;-145.17;58.26
32759;BME280;19125;52.360;9.974;2023-05-12T06:52:03;86647.66;;;-145.17;57.42
32759;BME280;19125;52.360;9.974;2023-05-12T06:54:29;86637.75;;;-145.17;57.48
32759;BME280;19125;52.360;9.974;2023-05-12T06:56:54;86651.63;;;-145.17;57.43
32759;BME280;19125;52.360;9.974;2023-05-12T06:59:20;86588.13;;;-145.17;57.61
32759;BME280;19125;52.360;9.974;2023-05-12T07:01:45;86572.25;;;-145.17;56.84
32759;BME280;19125;52.360;9.974;2023-05-12T07:04:11;86496.84;;;-145.17;56.01
32759;BME280;19125;52.360;9.974;2023-05-12T07:06:36;86447.22;;;-145.17;55.39
32759;BME280;19125;52.360;9.974;2023-05-12T07:09:01;86457.16;;;-145.17;55.65
32759;BME280;19125;52.360;9.974;2023-05-12T07:11:27;86492.88;;;-145.17;55.58
32759;BME280;19125;52.360;9.974;2023-05-12T07:13:52;86401.56;;;-145.17;55.38
32759;BME280;19125;52.360;9.974;2023-05-12T07:16:18;86361.88;;;-145.17;54.16
32759;BME280;19125;52.360;9.974;2023-05-12T07:18:44;86316.25;;;-145.17;53.67
32759;BME280;19125;52.360;9.974;2023-05-12T07:21:10;86290.44;;;-145.17;53.15
32759;BME280;19125;52.360;9.974;2023-05-12T07:23:36;86296.41;;;-145.17;52.85
32759;BME280;19125;52.360;9.974;2023-05-12T07:26:02;86282.50;;;-145.17;52.69
32759;BME280;19125;52.360;9.974;2023-05-12T07:28:29;86159.47;;;-145.17;52.34
32759;BME280;19125;52.360;9.974;2023-05-12T07:30:57;86217.03;;;-145.17;52.28
32759;BME280;19125;52.360;9.974;2023-05-12T07:33:22;86185.28;;;-145.17;52.47
32759;BME280;19125;52.360;9.974;2023-05-12T07:35:48;86141.63;;;-145.17;52.02
32759;BME280;19125;52.360;9.974;2023-05-12T07:38:13;86058.28;;;-145.17;50.99
32759;BME280;19125;52.360;9.974;2023-05-12T07:40:39;86076.13;;;-145.17;49.84
32759;BME280;19125;52.360;9.974;2023-05-12T07:43:04;86022.56;;;-145.17;49.86
32759;BME280;19125;52.360;9.974;2023-05-12T07:45:30;86022.56;;;-145.17;48.68
32759;BME280;19125;52.360;9.974;2023-05-12T07:47:55;85982.88;;;-145.17;48.57
32759;BME280;19125;52.360;9.974;2023-05-12T07:50:20;85965.00;;;-145.17;47.63
32759;BME280;19125;52.360;9.974;2023-05-12T07:52:50;85939.22;;;-145.17;47.27
32759;BME280;19125;52.360;9.974;2023-05-12T07:55:17;85949.13;;;-145.17;47.58
32759;BME280;19125;52.360;9.974;2023-05-12T07:57:42;85873.75;;;-145.17;47.07
32759;BME280;19125;52.360;9.974;2023-05-12T08:00:09;85842.00;;;-145.17;46.46
32759;BME280;19125;52.360;9.974;2023-05-12T08:02:39;85814.22;;;-145.17;46.18
32759;BME280;19125;52.360;9.974;2023-05-12T08:05:05;85847.94;;;-145.17;46.20
32759;BME280;19125;52.360;9.974;2023-05-12T08:07:31;85873.75;;;-145.17;45.56
32759;BME280;19125;52.360;9.974;2023-05-12T08:09:56;85794.38;;;-145.17;45.63
32759;BME280;19125;52.360;9.974;2023-05-12T08:12:22;85800.31;;;-145.17;45.26
32759;BME280;19125;52.360;9.974;2023-05-12T08:14:47;85774.53;;;-145.17;45.23
32759;BME280;19125;52.360;9.974;2023-05-12T08:17:13;85806.28;;;-145.17;44.73
32759;BME280;19125;52.360;9.974;2023-05-12T08:19:38;85782.47;;;-145.17;44.49
32759;BME280;19125;52.360;9.974;2023-05-12T08:22:03;85756.66;;;-145.17;44.57
32759;BME280;19125;52.360;9.974;2023-05-12T08:24:29;85728.88;;;-145.17;44.09
32759;BME280;19125;52.360;9.974;2023-05-12T08:26:54;85681.28;;;-145.17;43.47
32759;BME280;19125;52.360;9.974;2023-05-12T08:29:20;85695.16;;;-145.17;43.70
32759;BME280;19125;52.360;9.974;2023-05-12T08:31:45;85742.78;;;-145.17;43.37
32759;BME280;19125;52.360;9.974;2023-05-12T08:34:10;85699.13;;;-145.17;43.11
32759;BME280;19125;52.360;9.974;2023-05-12T08:36:37;85679.28;;;-145.17;42.95
32759;BME280;19125;52.360;9.974;2023-05-12T08:39:02;85641.59;;;-145.17;43.64
32759;BME280;19125;52.360;9.974;2023-05-12T08:41:44;85667.38;;;-145.17;43.19
32759;BME280;19125;52.360;9.974;2023-05-12T08:44:13;85595.97;;;-145.17;43.21
32759;BME280;19125;52.360;9.974;2023-05-12T08:46:40;85580.09;;;-145.17;42.46
32759;BME280;19125;52.360;9.974;2023-05-12T08:49:09;85556.28;;;-145.17;42.81
32759;BME280;19125;52.360;9.974;2023-05-12T08:51:37;85556.28;;;-145.17;42.80
32759;BME280;19125;52.360;9.974;2023-05-12T08:54:03;85584.06;;;-145.17;41.71
32759;BME280;19125;52.360;9.974;2023-05-12T08:56:28;85607.84;;;-145.17;41.81
32759;BME280;19125;52.360;9.974;2023-05-12T08:58:54;85615.78;;;-145.17;42.71
32759;BME280;19125;52.360;9.974;2023-05-12T09:01:20;85615.78;;;-145.17;42.59
32759;BME280;19125;52.360;9.974;2023-05-12T09:03:47;85643.56;;;-145.17;42.57
32759;BME280;19125;52.360;9.974;2023-05-12T09:06:12;85629.69;;;-145.17;42.32
32759;BME280;19125;52.360;9.974;2023-05-12T09:08:39;85554.28;;;-145.17;43.47
32759;BME280;19125;52.360;9.974;2023-05-12T09:11:05;85588.03;;;-145.17;41.77
32759;BME280;19125;52.360;9.974;2023-05-12T09:14:00;85584.06;;;-145.17;42.46
32759;BME280;19125;52.360;9.974;2023-05-12T09:16:29;85574.13;;;-145.17;42.87
32759;BME280;19125;52.360;9.974;2023-05-12T09:18:57;85528.50;;;-145.17;43.27
32759;BME280;19125;52.360;9.974;2023-05-12T09:21:23;85506.66;;;-145.17;42.95
32759;BME280;19125;52.360;9.974;2023-05-12T09:23:59;85500.72;;;-145.17;41.76
32759;BME280;19125;52.360;9.974;2023-05-12T09:26:27;85461.03;;;-145.17;40.70
32759;BME280;19125;52.360;9.974;2023-05-12T09:28:54;85530.47;;;-145.17;41.17
32759;BME280;19125;52.360;9.974;2023-05-12T09:31:21;85467.00;;;-145.17;41.73
32759;BME280;19125;52.360;9.974;2023-05-12T09:33:48;85417.38;;;-145.17;41.59
32759;BME280;19125;52.360;9.974;2023-05-12T09:36:19;85381.69;;;-145.17;39.61
32759;BME280;19125;52.360;9.974;2023-05-12T09:38:45;85322.16;;;-145.17;40.66
32759;BME280;19125;52.360;9.974;2023-05-12T09:41:10;85326.13;;;-145.17;40.28
32759;BME280;19125;52.360;9.974;2023-05-12T09:43:35;85385.66;;;-145.17;38.63
32759;BME280;19125;52.360;9.974;2023-05-12T09:46:04;85298.34;;;-145.17;39.21
32759;BME280;19125;52.360;9.974;2023-05-12T09:48:30;85284.47;;;-145.17;39.79
32759;BME280;19125;52.360;9.974;2023-05-12T09:50:56;85330.09;;;-145.17;39.41
32759;BME280;19125;52.360;9.974;2023-05-12T09:53:21;85278.50;;;-145.17;38.50
32759;BME280;19125;52.360;9.974;2023-05-12T09:55:48;85294.38;;;-145.17;37.52
32759;BME280;19125;52.360;9.974;2023-05-12T09:58:15;85274.53;;;-145.17;37.65
32759;BME280;19125;52.360;9.974;2023-05-12T10:00:41;85256.69;;;-145.17;37.41
32759;BME280;19125;52.360;9.974;2023-05-12T10:03:15;85226.94;;;-145.17;37.86
32759;BME280;19125;52.360;9.974;2023-05-12T10:05:52;85191.22;;;-145.17;36.67
32759;BME280;19125;52.360;9.974;2023-05-12T10:08:26;85189.25;;;-145.17;35.84
32759;BME280;19125;52.360;9.974;2023-05-12T10:10:55;85264.63;;;-145.17;35.29
32759;BME280;19125;52.360;9.974;2023-05-12T10:13:21;85222.97;;;-145.17;35.58
32759;BME280;19125;52.360;9.974;2023-05-12T10:15:48;85153.53;;;-145.17;35.56
32759;BME280;19125;52.360;9.974;2023-05-12T10:18:16;85197.16;;;-145.17;35.90
32759;BME280;19125;52.360;9.974;2023-05-12T10:20:43;85169.41;;;-145.17;34.72
32759;BME280;19125;52.360;9.974;2023-05-12T10:23:11;85173.38;;;-145.17;35.34
32759;BME280;19125;52.360;9.974;2023-05-12T10:25:40;85135.66;;;-145.17;34.35
32759;BME280;19125;52.360;9.974;2023-05-12T10:28:07;85125.75;;;-145.17;34.89
32759;BME280;19125;52.360;9.974;2023-05-12T10:30:33;85096.00;;;-145.17;35.44
32759;BME280;19125;52.360;9.974;2023-05-12T10:32:59;85111.88;;;-145.17;34.39
32759;BME280;19125;52.360;9.974;2023-05-12T10:35:33;85048.38;;;-145.17;35.57
32759;BME280;19125;52.360;9.974;2023-05-12T10:38:13;85139.63;;;-145.17;34.51
32759;BME280;19125;52.360;9.974;2023-05-12T10:40:50;85107.91;;;-145.17;33.69
32759;BME280;19125;52.360;9.974;2023-05-12T10:43:27;85113.84;;;-145.17;34.38
32759;BME280;19125;52.360;9.974;2023-05-12T10:49:18;85135.66;;;-145.17;33.85
32759;BME280;19125;52.360;9.974;2023-05-12T10:54:16;85090.03;;;-145.17;34.04
32759;BME280;19125;52.360;9.974;2023-05-12T10:56:42;85088.06;;;-145.17;33.51
32759;BME280;19125;52.360;9.974;2023-05-12T11:02:14;85113.84;;;-145.17;32.87
32759;BME280;19125;52.360;9.974;2023-05-12T11:07:12;85056.31;;;-145.17;32.10
32759;BME280;19125;52.360;9.974;2023-05-12T11:09:41;85127.75;;;-145.17;31.42
32759;BME280;19125;52.360;9.974;2023-05-12T11:12:08;85076.16;;;-145.17;30.73
32759;BME280;19125;52.360;9.974;2023-05-12T11:14:35;85076.16;;;-145.17;30.87
32759;BME280;19125;52.360;9.974;2023-05-12T11:17:00;85046.41;;;-145.17;31.55
32759;BME280;19125;52.360;9.974;2023-05-12T11:19:26;85070.22;;;-145.17;30.41
32759;BME280;19125;52.360;9.974;2023-05-12T11:21:52;84998.78;;;-145.17;30.82
32759;BME280;19125;52.360;9.974;2023-05-12T11:24:19;84941.25;;;-145.17;30.21
32759;BME280;19125;52.360;9.974;2023-05-12T11:26:44;84937.28;;;-145.17;30.46
32759;BME280;19125;52.360;9.974;2023-05-12T11:29:09;84933.31;;;-145.17;29.99
32759;BME280;19125;52.360;9.974;2023-05-12T11:31:35;84935.31;;;-145.17;29.88
32759;BME280;19125;52.360;9.974;2023-05-12T11:34:05;84931.34;;;-145.17;31.15
32759;BME280;19125;52.360;9.974;2023-05-12T11:36:41;84921.41;;;-145.17;30.51
32759;BME280;19125;52.360;9.974;2023-05-12T11:39:12;84844.06;;;-145.17;29.46
32759;BME280;19125;52.360;9.974;2023-05-12T11:41:39;84814.31;;;-145.17;29.20
32759;BME280;19125;52.360;9.974;2023-05-12T11:44:31;84762.72;;;-145.17;29.97
32759;BME280;19125;52.360;9.974;2023-05-12T11:47:02;84822.22;;;-145.17;29.54
32759;BME280;19125;52.360;9.974;2023-05-12T11:49:29;84879.75;;;-145.17;28.88
32759;BME280;19125;52.360;9.974;2023-05-12T11:51:58;84869.84;;;-145.17;29.20
32759;BME280;19125;52.360;9.974;2023-05-12T11:54:23;84820.25;;;-145.17;30.15
32759;BME280;19125;52.360;9.974;2023-05-12T11:56:50;84730.97;;;-145.17;30.29
32759;BME280;19125;52.360;9.974;2023-05-12T11:59:33;84651.63;;;-145.17;28.32
32759;BME280;19125;52.360;9.974;2023-05-12T12:02:02;84631.81;;;-145.17;27.64
32759;BME280;19125;52.360;9.974;2023-05-12T12:04:34;84659.56;;;-145.17;28.70
32759;BME280;19125;52.360;9.974;2023-05-12T12:07:01;84633.78;;;-145.17;28.66
32759;BME280;19125;52.360;9.974;2023-05-12T12:09:33;84671.47;;;-145.17;28.29
32759;BME280;19125;52.360;9.974;2023-05-12T12:12:00;84752.81;;;-145.17;28.66
32759;BME280;19125;52.360;9.974;2023-05-12T12:14:26;84808.34;;;-145.17;28.73
32759;BME280;19125;52.360;9.974;2023-05-12T12:16:52;84857.94;;;-145.17;28.82
32759;BME280;19125;52.360;9.974;2023-05-12T12:19:17;84881.75;;;-145.17;29.50
32759;BME280;19125;52.360;9.974;2023-05-12T12:21:42;84911.50;;;-145.17;30.42
32759;BME280;19125;52.360;9.974;2023-05-12T12:24:08;84917.47;;;-145.17;30.06
32759;BME280;19125;52.360;9.974;2023-05-12T12:26:34;84965.06;;;-145.17;30.02
32759;BME280;19125;52.360;9.974;2023-05-12T12:28:59;84963.09;;;-145.17;29.70
32759;BME280;19125;52.360;9.974;2023-05-12T12:31:24;84945.22;;;-145.17;29.55
32759;BME280;19125;52.360;9.974;2023-05-12T12:33:50;84828.19;;;-145.17;29.21
32759;BME280;19125;52.360;9.974;2023-05-12T12:36:15;84802.41;;;-145.17;27.18
32759;BME280;19125;52.360;9.974;2023-05-12T12:38:40;84802.41;;;-145.17;27.90
32759;BME280;19125;52.360;9.974;2023-05-12T12:41:06;84818.25;;;-145.17;26.91
32759;BME280;19125;52.360;9.974;2023-05-12T12:43:32;84754.78;;;-145.17;26.32